createdAt,value
2022-11-24T00:00:12.336Z,961.0400
2022-11-24T00:01:14.116Z,961.0200
2022-11-24T00:02:14.490Z,961.0200
2022-11-24T00:03:17.004Z,961.0400
2022-11-24T00:04:18.880Z,961.0400
2022-11-24T00:05:21.185Z,961.0600
2022-11-24T00:06:21.340Z,961.0600
2022-11-24T00:07:23.724Z,961.0600
2022-11-24T00:08:25.964Z,961.0400
2022-11-24T00:09:28.270Z,961.0400
2022-11-24T00:10:30.571Z,961.0400
2022-11-24T00:11:32.866Z,961.0600
2022-11-24T00:12:35.227Z,961.0400
2022-11-24T00:13:35.165Z,961.0400
2022-11-24T00:14:37.436Z,961.0400
2022-11-24T00:15:39.695Z,961.0200
2022-11-24T00:16:41.992Z,961.0400
2022-11-24T00:17:44.330Z,961.0400
2022-11-24T00:18:46.493Z,961.0600
2022-11-24T00:19:48.740Z,961.0700
2022-11-24T00:22:21.317Z,961.0900
2022-11-24T00:23:23.478Z,961.0900
2022-11-24T00:24:25.613Z,961.0700
2022-11-24T00:25:27.797Z,961.0900
2022-11-24T00:26:30.040Z,961.0900
2022-11-24T00:27:32.258Z,961.0900
2022-11-24T00:28:36.679Z,961.1700
2022-11-24T00:29:26.041Z,961.1500
2022-11-24T00:30:26.355Z,961.1300
2022-11-24T00:31:30.567Z,961.1300
2022-11-24T00:32:30.606Z,961.1500
2022-11-24T00:33:32.859Z,961.1500
2022-11-24T00:34:29.735Z,961.1900
2022-11-24T00:35:30.946Z,961.1900
2022-11-24T00:36:33.218Z,961.1700
2022-11-24T00:37:35.495Z,961.2100
2022-11-24T00:38:35.637Z,961.1700
2022-11-24T00:39:37.950Z,961.1900
2022-11-24T00:40:40.220Z,961.1900
2022-11-24T00:41:42.542Z,961.2500
2022-11-24T00:42:44.794Z,961.2300
2022-11-24T00:43:47.097Z,961.2700
2022-11-24T00:44:49.438Z,961.2900
2022-11-24T00:45:51.621Z,961.2700
2022-11-24T00:46:51.692Z,961.2700
2022-11-24T00:47:53.786Z,961.2900
2022-11-24T00:48:56.004Z,961.2700
2022-11-24T00:49:58.248Z,961.2900
2022-11-24T00:51:00.344Z,961.2900
2022-11-24T00:52:02.616Z,961.2700
2022-11-24T00:53:04.900Z,961.2900
2022-11-24T00:54:07.210Z,961.2900
2022-11-24T00:55:09.553Z,961.3300
2022-11-24T00:56:11.847Z,961.3300
2022-11-24T00:57:11.992Z,961.3700
2022-11-24T00:58:14.264Z,961.3900
2022-11-24T00:59:16.543Z,961.4100
2022-11-24T01:00:18.910Z,961.4700
2022-11-24T01:01:21.260Z,961.4700
2022-11-24T01:02:23.517Z,961.5100
2022-11-24T01:03:23.614Z,961.5300
2022-11-24T01:04:25.924Z,961.5300
2022-11-24T01:05:28.296Z,961.5400
2022-11-24T01:06:30.555Z,961.5800
2022-11-24T01:07:32.912Z,961.6000
2022-11-24T01:08:35.190Z,961.6400
2022-11-24T01:09:37.392Z,961.6800
2022-11-24T01:10:39.765Z,961.6400
2022-11-24T01:11:41.952Z,961.7000
2022-11-24T01:12:44.188Z,961.6800
2022-11-24T01:13:46.480Z,961.7000
2022-11-24T01:14:48.793Z,961.7000
2022-11-24T01:15:51.186Z,961.7200
2022-11-24T01:16:51.214Z,961.7200
2022-11-24T01:17:53.487Z,961.7400
2022-11-24T01:18:55.769Z,961.7200
2022-11-24T01:19:58.048Z,961.7400
2022-11-24T01:21:00.395Z,961.7800
2022-11-24T01:22:02.617Z,961.8000
2022-11-24T01:23:04.897Z,961.8000
2022-11-24T01:24:05.039Z,961.9200
2022-11-24T01:25:07.368Z,961.8400
2022-11-24T01:26:09.720Z,961.9200
2022-11-24T01:27:12.010Z,961.9600
2022-11-24T01:28:14.313Z,961.9800
2022-11-24T01:29:16.610Z,962.0000
2022-11-24T01:30:18.901Z,962.0000
2022-11-24T01:31:19.164Z,962.0400
2022-11-24T01:32:21.396Z,962.0600
2022-11-24T01:33:23.667Z,962.0800
2022-11-24T01:34:25.944Z,962.1200
2022-11-24T01:35:28.206Z,962.1400
2022-11-24T01:36:30.637Z,962.1200
2022-11-24T01:37:30.594Z,962.1200
2022-11-24T01:38:32.829Z,962.1500
2022-11-24T01:39:35.053Z,962.1700
2022-11-24T01:40:37.292Z,962.1700
2022-11-24T01:41:39.612Z,962.1900
2022-11-24T01:42:41.817Z,962.2100
2022-11-24T01:43:44.088Z,962.2500
2022-11-24T01:44:46.339Z,962.2900
2022-11-24T01:45:46.533Z,962.2300
2022-11-24T01:46:48.762Z,962.2500
2022-11-24T01:47:51.000Z,962.2900
2022-11-24T01:48:53.249Z,962.3100
2022-11-24T01:49:55.514Z,962.2900
2022-11-24T01:50:57.770Z,962.3300
2022-11-24T01:52:00.124Z,962.3100
2022-11-24T01:53:02.354Z,962.3100
2022-11-24T01:54:04.633Z,962.2900
2022-11-24T01:55:04.734Z,962.2700
2022-11-24T01:56:07.011Z,962.2300
2022-11-24T01:57:09.416Z,962.2300
2022-11-24T01:58:11.574Z,962.2500
2022-11-24T01:59:13.893Z,962.2100
2022-11-24T02:00:16.212Z,962.2700
2022-11-24T02:01:18.550Z,962.2700
2022-11-24T02:02:18.779Z,962.3100
2022-11-24T02:03:20.964Z,962.3100
2022-11-24T02:04:23.253Z,962.3700
2022-11-24T02:05:25.527Z,962.3500
2022-11-24T02:06:27.774Z,962.3700
2022-11-24T02:07:30.198Z,962.3700
2022-11-24T02:08:32.271Z,962.4100
2022-11-24T02:09:34.547Z,962.3700
2022-11-24T02:10:34.703Z,962.3700
2022-11-24T02:11:37.005Z,962.3500
2022-11-24T02:12:39.357Z,962.3700
2022-11-24T02:13:41.576Z,962.3900
2022-11-24T02:14:43.860Z,962.3700
2022-11-24T02:15:46.288Z,962.3500
2022-11-24T02:16:46.278Z,962.3900
2022-11-24T02:17:48.552Z,962.4300
2022-11-24T02:18:50.708Z,962.4100
2022-11-24T02:19:52.921Z,962.4700
2022-11-24T02:20:55.183Z,962.4700
2022-11-24T02:21:57.420Z,962.4700
2022-11-24T02:22:59.748Z,962.4900
2022-11-24T02:24:01.972Z,962.5300
2022-11-24T02:25:04.262Z,962.4900
2022-11-24T02:26:06.543Z,962.5300
2022-11-24T02:27:06.670Z,962.4900
2022-11-24T02:28:08.986Z,962.5300
2022-11-24T02:29:11.243Z,962.5600
2022-11-24T02:30:13.523Z,962.5100
2022-11-24T02:31:15.893Z,962.5400
2022-11-24T02:32:18.094Z,962.5300
2022-11-24T02:33:20.432Z,962.5100
2022-11-24T02:34:20.564Z,962.5300
2022-11-24T02:35:22.839Z,962.5100
2022-11-24T02:36:25.145Z,962.5400
2022-11-24T02:37:27.466Z,962.5400
2022-11-24T02:38:29.912Z,962.5100
2022-11-24T02:39:32.034Z,962.5300
2022-11-24T02:40:34.313Z,962.5400
2022-11-24T02:41:34.443Z,962.5300
2022-11-24T02:42:36.763Z,962.5600
2022-11-24T02:43:39.334Z,962.5800
2022-11-24T02:44:41.416Z,962.6200
2022-11-24T02:45:43.757Z,962.6400
2022-11-24T02:46:46.066Z,962.6200
2022-11-24T02:47:48.367Z,962.6000
2022-11-24T02:48:50.696Z,962.6000
2022-11-24T02:49:52.989Z,962.6200
2022-11-24T02:50:55.261Z,962.6400
2022-11-24T02:51:57.582Z,962.6400
2022-11-24T02:52:57.760Z,962.6400
2022-11-24T02:54:00.140Z,962.6400
2022-11-24T02:55:02.340Z,962.6400
2022-11-24T02:56:04.612Z,962.6200
2022-11-24T02:57:06.904Z,962.6400
2022-11-24T02:58:09.220Z,962.6200
2022-11-24T02:59:11.517Z,962.6200
2022-11-24T03:00:11.605Z,962.6200
2022-11-24T03:01:13.973Z,962.5600
2022-11-24T03:02:16.281Z,962.5800
2022-11-24T03:03:18.467Z,962.6000
2022-11-24T03:04:21.019Z,962.6400
2022-11-24T03:05:23.031Z,962.6400
2022-11-24T03:06:25.325Z,962.6200
2022-11-24T03:07:25.523Z,962.6200
2022-11-24T03:08:27.769Z,962.6600
2022-11-24T03:09:30.342Z,962.6800
2022-11-24T03:10:32.385Z,962.7000
2022-11-24T03:11:34.648Z,962.7000
2022-11-24T03:12:36.895Z,962.7200
2022-11-24T03:13:39.134Z,962.7200
2022-11-24T03:14:41.377Z,962.7200
2022-11-24T03:15:41.575Z,962.6800
2022-11-24T03:16:43.809Z,962.7000
2022-11-24T03:17:46.101Z,962.6800
2022-11-24T03:18:48.410Z,962.6600
2022-11-24T03:19:50.827Z,962.6800
2022-11-24T03:20:53.032Z,962.7000
2022-11-24T03:21:53.187Z,962.6800
2022-11-24T03:22:55.499Z,962.6800
2022-11-24T03:23:57.811Z,962.6800
2022-11-24T03:25:00.216Z,962.6000
2022-11-24T03:26:02.509Z,962.6200
2022-11-24T03:27:02.732Z,962.5800
2022-11-24T03:28:05.104Z,962.5800
2022-11-24T03:29:07.479Z,962.5800
2022-11-24T03:30:09.899Z,962.5800
2022-11-24T03:31:12.236Z,962.6000
2022-11-24T03:32:12.423Z,962.5800
2022-11-24T03:33:14.794Z,962.5800
2022-11-24T03:34:17.167Z,962.5800
2022-11-24T03:35:19.499Z,962.6000
2022-11-24T03:36:21.817Z,962.6000
2022-11-24T03:37:22.016Z,962.6200
2022-11-24T03:38:24.370Z,962.5800
2022-11-24T03:39:26.735Z,962.6200
2022-11-24T03:40:29.148Z,962.6200
2022-11-24T03:41:31.452Z,962.6400
2022-11-24T03:42:31.673Z,962.6200
2022-11-24T03:43:37.822Z,962.6200
2022-11-24T03:44:36.561Z,962.6000
2022-11-24T03:45:45.871Z,962.7000
2022-11-24T03:46:40.948Z,962.6800
2022-11-24T03:47:41.120Z,962.6800
2022-11-24T03:48:43.427Z,962.7200
2022-11-24T03:49:45.783Z,962.7600
2022-11-24T03:50:48.145Z,962.7200
2022-11-24T03:51:50.446Z,962.7200
2022-11-24T03:52:52.764Z,962.7000
2022-11-24T03:53:52.980Z,962.7200
2022-11-24T03:54:55.300Z,962.7400
2022-11-24T03:55:57.884Z,962.7400
2022-11-24T03:56:59.970Z,962.7200
2022-11-24T03:58:00.146Z,962.6600
2022-11-24T03:59:02.458Z,962.7000
2022-11-24T04:00:04.804Z,962.6600
2022-11-24T04:01:07.056Z,962.7200
2022-11-24T04:02:09.387Z,962.7000
2022-11-24T04:03:11.687Z,962.6400
2022-11-24T04:04:13.804Z,962.6400
2022-11-24T04:05:16.101Z,962.6600
2022-11-24T04:06:16.353Z,962.6800
2022-11-24T04:07:18.730Z,962.6800
2022-11-24T04:08:21.099Z,962.7200
2022-11-24T04:09:23.467Z,962.7200
2022-11-24T04:10:23.644Z,962.7000
2022-11-24T04:11:26.065Z,962.7200
2022-11-24T04:12:28.343Z,962.7800
2022-11-24T04:13:30.719Z,962.8000
2022-11-24T04:14:33.486Z,962.8400
2022-11-24T04:15:35.464Z,962.8400
2022-11-24T04:16:37.879Z,962.8400
2022-11-24T04:17:40.209Z,962.8400
2022-11-24T04:18:42.609Z,962.8600
2022-11-24T04:19:42.798Z,962.8800
2022-11-24T04:20:45.088Z,962.9000
2022-11-24T04:21:47.519Z,962.9200
2022-11-24T04:22:49.869Z,962.9600
2022-11-24T04:23:52.255Z,962.9400
2022-11-24T04:24:52.520Z,962.9800
2022-11-24T04:25:54.861Z,962.9600
2022-11-24T04:26:57.391Z,963.0000
2022-11-24T04:27:59.605Z,962.9600
2022-11-24T04:28:59.826Z,962.9600
2022-11-24T04:30:02.192Z,962.9400
2022-11-24T04:31:04.645Z,962.9400
2022-11-24T04:32:06.962Z,962.9800
2022-11-24T04:33:07.148Z,962.9800
2022-11-24T04:34:09.541Z,962.9600
2022-11-24T04:35:11.912Z,962.9800
2022-11-24T04:36:14.252Z,963.0000
2022-11-24T04:37:14.487Z,963.0000
2022-11-24T04:39:23.289Z,963.0900
2022-11-24T04:39:26.326Z,963.0100
2022-11-24T04:40:21.544Z,963.0700
2022-11-24T04:41:23.845Z,963.0500
2022-11-24T04:42:24.120Z,963.0700
2022-11-24T04:43:26.454Z,963.0500
2022-11-24T04:44:28.817Z,963.0900
2022-11-24T04:45:31.192Z,963.0700
2022-11-24T04:46:33.683Z,963.1100
2022-11-24T04:47:33.827Z,963.1100
2022-11-24T04:48:36.176Z,963.1100
2022-11-24T04:49:38.557Z,963.1100
2022-11-24T04:50:40.920Z,963.1300
2022-11-24T04:51:41.114Z,963.1500
2022-11-24T04:52:43.461Z,963.1300
2022-11-24T04:53:45.764Z,963.1500
2022-11-24T04:54:48.125Z,963.1500
2022-11-24T04:55:50.467Z,963.1900
2022-11-24T04:56:50.635Z,963.1700
2022-11-24T04:57:53.027Z,963.2100
2022-11-24T04:58:55.313Z,963.1700
2022-11-24T04:59:57.647Z,963.2500
2022-11-24T05:00:59.981Z,963.2700
2022-11-24T05:02:02.363Z,963.2700
2022-11-24T05:03:02.478Z,963.2500
2022-11-24T05:04:04.851Z,963.3300
2022-11-24T05:05:07.137Z,963.3700
2022-11-24T05:06:09.479Z,963.4100
2022-11-24T05:07:17.788Z,963.4100
2022-11-24T05:08:12.036Z,963.4300
2022-11-24T05:09:14.310Z,963.4500
2022-11-24T05:10:16.611Z,963.4700
2022-11-24T05:11:18.964Z,963.4800
2022-11-24T05:12:19.114Z,963.4800
2022-11-24T05:13:23.589Z,963.5200
2022-11-24T05:14:24.789Z,963.5000
2022-11-24T05:15:27.081Z,963.5000
2022-11-24T05:16:27.395Z,963.4700
2022-11-24T05:17:29.625Z,963.4800
2022-11-24T05:18:31.950Z,963.4800
2022-11-24T05:19:34.224Z,963.4800
2022-11-24T05:20:36.541Z,963.5000
2022-11-24T05:21:38.853Z,963.4300
2022-11-24T05:22:41.156Z,963.3700
2022-11-24T05:23:43.521Z,963.3900
2022-11-24T05:24:45.801Z,963.4300
2022-11-24T05:25:48.200Z,963.4100
2022-11-24T05:26:50.467Z,963.4300
2022-11-24T05:27:52.803Z,963.4700
2022-11-24T05:28:55.283Z,963.4300
2022-11-24T05:29:57.446Z,963.4500
2022-11-24T05:30:59.796Z,963.4700
2022-11-24T05:32:02.107Z,963.4700
2022-11-24T05:33:04.420Z,963.4300
2022-11-24T05:34:06.793Z,963.4300
2022-11-24T05:35:09.096Z,963.4100
2022-11-24T05:36:11.444Z,963.4100
2022-11-24T05:37:13.781Z,963.4100
2022-11-24T05:38:13.976Z,963.4100
2022-11-24T05:39:16.337Z,963.4100
2022-11-24T05:40:18.634Z,963.4700
2022-11-24T05:41:20.935Z,963.4500
2022-11-24T05:42:23.270Z,963.4700
2022-11-24T05:43:25.589Z,963.4500
2022-11-24T05:44:27.978Z,963.4700
2022-11-24T05:45:30.230Z,963.5000
2022-11-24T05:46:32.627Z,963.5000
2022-11-24T05:47:34.885Z,963.5600
2022-11-24T05:48:37.213Z,963.5000
2022-11-24T05:49:39.674Z,963.5200
2022-11-24T05:50:41.863Z,963.5400
2022-11-24T05:51:44.185Z,963.6000
2022-11-24T05:52:46.489Z,963.5600
2022-11-24T05:53:48.782Z,963.5600
2022-11-24T05:54:51.132Z,963.5000
2022-11-24T05:55:53.351Z,963.5000
2022-11-24T05:56:55.676Z,963.5000
2022-11-24T05:57:55.819Z,963.5000
2022-11-24T05:58:58.075Z,963.5000
2022-11-24T06:00:00.356Z,963.5400
2022-11-24T06:01:02.575Z,963.6000
2022-11-24T06:02:02.794Z,963.5200
2022-11-24T06:03:05.249Z,963.5400
2022-11-24T06:04:07.363Z,963.5400
2022-11-24T06:05:09.714Z,963.5400
2022-11-24T06:06:12.043Z,963.5600
2022-11-24T06:07:14.453Z,963.5400
2022-11-24T06:08:16.709Z,963.5400
2022-11-24T06:09:19.058Z,963.5400
2022-11-24T06:10:21.422Z,963.5000
2022-11-24T06:11:21.612Z,963.5000
2022-11-24T06:12:23.998Z,963.5200
2022-11-24T06:13:26.427Z,963.5000
2022-11-24T06:14:26.602Z,963.5200
2022-11-24T06:15:29.073Z,963.5600
2022-11-24T06:16:31.436Z,963.5600
2022-11-24T06:17:31.570Z,963.5600
2022-11-24T06:18:33.942Z,963.5600
2022-11-24T06:19:41.484Z,963.5400
2022-11-24T06:20:36.546Z,963.5200
2022-11-24T06:21:38.855Z,963.5600
2022-11-24T06:22:41.211Z,963.5600
2022-11-24T06:23:41.424Z,963.5400
2022-11-24T06:24:43.780Z,963.5400
2022-11-24T06:25:51.269Z,963.5000
2022-11-24T06:26:46.340Z,963.4800
2022-11-24T06:27:48.736Z,963.4800
2022-11-24T06:28:51.103Z,963.5000
2022-11-24T06:29:51.315Z,963.5600
2022-11-24T06:30:53.824Z,963.6000
2022-11-24T06:31:56.118Z,963.6200
2022-11-24T06:32:58.396Z,963.6200
2022-11-24T06:34:00.823Z,963.6200
2022-11-24T06:35:03.130Z,963.6400
2022-11-24T06:36:03.388Z,963.6200
2022-11-24T06:37:05.704Z,963.6200
2022-11-24T06:38:08.066Z,963.6400
2022-11-24T06:39:08.203Z,963.6600
2022-11-24T06:40:10.561Z,963.6800
2022-11-24T06:41:12.940Z,963.7000
2022-11-24T06:42:15.214Z,963.7600
2022-11-24T06:43:17.561Z,963.7200
2022-11-24T06:44:19.860Z,963.7200
2022-11-24T06:45:22.127Z,963.7000
2022-11-24T06:46:24.582Z,963.7200
2022-11-24T06:47:26.699Z,963.7000
2022-11-24T06:48:29.077Z,963.7000
2022-11-24T06:49:31.482Z,963.7200
2022-11-24T06:50:33.970Z,963.7200
2022-11-24T06:51:36.135Z,963.6800
2022-11-24T06:52:38.471Z,963.7000
2022-11-24T06:53:40.855Z,963.6800
2022-11-24T06:54:41.094Z,963.7200
2022-11-24T06:55:43.447Z,963.6600
2022-11-24T06:56:45.820Z,963.6600
2022-11-24T06:57:46.025Z,963.6600
2022-11-24T06:58:48.409Z,963.6600
2022-11-24T06:59:50.772Z,963.6200
2022-11-24T07:00:51.053Z,963.6400
2022-11-24T07:01:53.370Z,963.6400
2022-11-24T07:02:55.760Z,963.6200
2022-11-24T07:03:58.015Z,963.6000
2022-11-24T07:05:00.327Z,963.5600
2022-11-24T07:06:02.679Z,963.5600
2022-11-24T07:07:02.898Z,963.5600
2022-11-24T07:08:05.257Z,963.5400
2022-11-24T07:09:07.607Z,963.5200
2022-11-24T07:10:09.917Z,963.5400
2022-11-24T07:11:12.274Z,963.5600
2022-11-24T07:12:14.671Z,963.6000
2022-11-24T07:13:14.862Z,963.6400
2022-11-24T07:14:17.210Z,963.6000
2022-11-24T07:15:19.580Z,963.6400
2022-11-24T07:16:19.873Z,963.6400
2022-11-24T07:17:22.226Z,963.6400
2022-11-24T07:18:24.521Z,963.6800
2022-11-24T07:19:25.336Z,963.7000
2022-11-24T07:20:27.067Z,963.6600
2022-11-24T07:21:29.442Z,963.6800
2022-11-24T07:22:29.774Z,963.7200
2022-11-24T07:23:32.003Z,963.6600
2022-11-24T07:24:34.633Z,963.6800
2022-11-24T07:25:36.680Z,963.6600
2022-11-24T07:26:39.074Z,963.6400
2022-11-24T07:27:41.522Z,963.6200
2022-11-24T07:28:41.705Z,963.6600
2022-11-24T07:29:44.093Z,963.6600
2022-11-24T07:30:46.471Z,963.6600
2022-11-24T07:31:46.783Z,963.7200
2022-11-24T07:32:49.145Z,963.7600
2022-11-24T07:33:51.468Z,963.7200
2022-11-24T07:34:51.642Z,963.7400
2022-11-24T07:35:53.984Z,963.7600
2022-11-24T07:36:56.327Z,963.7800
2022-11-24T07:37:56.664Z,963.7800
2022-11-24T07:38:58.860Z,963.7600
2022-11-24T07:40:01.132Z,963.8200
2022-11-24T07:41:03.331Z,963.8200
2022-11-24T07:42:05.530Z,963.7600
2022-11-24T07:43:07.867Z,963.8200
2022-11-24T07:44:09.937Z,963.8200
2022-11-24T07:45:12.153Z,963.8000
2022-11-24T07:46:14.453Z,963.8000
2022-11-24T07:47:16.615Z,963.8400
2022-11-24T07:48:18.921Z,963.8200
2022-11-24T07:49:21.093Z,963.7800
2022-11-24T07:50:23.322Z,963.8000
2022-11-24T07:51:25.598Z,963.9000
2022-11-24T07:52:27.966Z,963.9400
2022-11-24T07:53:30.314Z,963.9400
2022-11-24T07:54:33.104Z,963.9200
2022-11-24T07:55:34.961Z,963.9400
2022-11-24T07:56:37.318Z,963.9900
2022-11-24T07:57:39.659Z,964.0300
2022-11-24T07:59:55.283Z,964.0700
2022-11-24T08:00:57.314Z,964.0900
2022-11-24T08:01:59.571Z,964.1100
2022-11-24T08:03:01.848Z,964.1100
2022-11-24T08:04:04.262Z,964.1700
2022-11-24T08:05:06.457Z,964.1300
2022-11-24T08:06:27.252Z,964.1700
2022-11-24T08:07:11.028Z,964.1900
2022-11-24T08:08:11.128Z,964.1900
2022-11-24T08:09:13.415Z,964.2100
2022-11-24T08:10:15.732Z,964.2900
2022-11-24T08:11:18.006Z,964.2100
2022-11-24T08:12:20.285Z,964.2100
2022-11-24T08:13:22.571Z,964.2500
2022-11-24T08:14:24.859Z,964.2700
2022-11-24T08:15:25.040Z,964.3100
2022-11-24T08:16:27.395Z,964.3300
2022-11-24T08:17:29.579Z,964.4100
2022-11-24T08:18:31.847Z,964.3100
2022-11-24T08:19:34.156Z,964.3500
2022-11-24T08:20:36.443Z,964.4800
2022-11-24T08:21:38.702Z,964.5500
2022-11-24T08:22:40.988Z,964.5600
2022-11-24T08:23:41.159Z,964.6400
2022-11-24T08:24:43.463Z,964.6600
2022-11-24T08:25:45.813Z,964.6400
2022-11-24T08:26:48.084Z,964.6200
2022-11-24T08:27:50.399Z,964.6200
2022-11-24T08:28:52.661Z,964.6600
2022-11-24T08:29:52.785Z,964.6000
2022-11-24T08:30:55.103Z,964.6400
2022-11-24T08:31:57.424Z,964.6400
2022-11-24T08:32:59.724Z,964.6400
2022-11-24T08:34:01.951Z,964.6800
2022-11-24T08:35:18.915Z,964.7200
2022-11-24T08:36:04.415Z,964.7200
2022-11-24T08:37:06.693Z,964.6800
2022-11-24T08:38:09.018Z,964.6400
2022-11-24T08:39:11.353Z,964.7200
2022-11-24T08:40:13.712Z,964.7200
2022-11-24T08:41:16.109Z,964.7000
2022-11-24T08:42:16.310Z,964.7400
2022-11-24T08:43:18.656Z,964.6800
2022-11-24T08:44:21.021Z,964.7200
2022-11-24T08:45:25.628Z,964.7200
2022-11-24T08:46:23.824Z,964.7600
2022-11-24T08:47:25.973Z,964.7600
2022-11-24T08:48:28.317Z,964.7400
2022-11-24T08:49:30.668Z,964.8000
2022-11-24T08:50:33.058Z,964.8400
2022-11-24T08:51:33.391Z,964.8200
2022-11-24T08:52:35.629Z,964.8600
2022-11-24T08:53:37.955Z,964.8800
2022-11-24T08:54:40.314Z,964.9400
2022-11-24T08:55:42.638Z,964.9400
2022-11-24T08:56:42.886Z,965.0000
2022-11-24T08:57:45.230Z,965.0300
2022-11-24T08:58:47.666Z,964.9800
2022-11-24T08:59:49.975Z,964.9800
2022-11-24T09:00:52.352Z,965.0000
2022-11-24T09:01:52.628Z,965.0000
2022-11-24T09:02:54.935Z,965.0200
2022-11-24T09:03:57.391Z,965.0700
2022-11-24T09:04:59.698Z,965.0500
2022-11-24T09:05:59.947Z,965.0000
2022-11-24T09:07:02.355Z,965.0200
2022-11-24T09:08:04.688Z,965.0300
2022-11-24T09:09:07.086Z,964.9600
2022-11-24T09:10:07.301Z,965.0000
2022-11-24T09:11:09.668Z,965.0500
2022-11-24T09:12:14.845Z,965.1100
2022-11-24T09:13:14.385Z,965.1300
2022-11-24T09:14:14.593Z,965.1100
2022-11-24T09:15:16.966Z,965.1500
2022-11-24T09:16:19.459Z,965.0500
2022-11-24T09:17:21.715Z,965.1700
2022-11-24T09:18:27.587Z,965.1100
2022-11-24T09:19:24.281Z,965.1300
2022-11-24T09:20:26.617Z,965.1700
2022-11-24T09:21:29.004Z,965.1500
2022-11-24T09:22:31.369Z,965.1700
2022-11-24T09:23:33.692Z,965.1500
2022-11-24T09:24:33.899Z,965.0900
2022-11-24T09:25:36.279Z,965.0700
2022-11-24T09:26:43.051Z,965.0500
2022-11-24T09:27:41.020Z,965.0900
2022-11-24T09:28:41.189Z,965.1100
2022-11-24T09:29:43.553Z,965.0900
2022-11-24T09:30:45.964Z,965.0900
2022-11-24T09:31:48.249Z,965.1500
2022-11-24T09:32:50.636Z,965.1700
2022-11-24T09:33:50.807Z,965.1500
2022-11-24T09:34:53.110Z,965.1900
2022-11-24T09:35:55.451Z,965.2500
2022-11-24T09:36:57.792Z,965.2500
2022-11-24T09:38:00.204Z,965.2500
2022-11-24T09:39:02.389Z,965.3100
2022-11-24T09:40:58.575Z,965.3100
2022-11-24T09:42:00.860Z,965.2700
2022-11-24T09:43:03.247Z,965.3100
2022-11-24T09:44:03.368Z,965.2900
2022-11-24T09:45:05.687Z,965.3300
2022-11-24T09:46:08.062Z,965.3500
2022-11-24T09:47:10.233Z,965.2700
2022-11-24T09:48:12.579Z,965.3300
2022-11-24T09:49:14.720Z,965.3300
2022-11-24T09:50:16.991Z,965.4100
2022-11-24T09:51:19.284Z,965.4400
2022-11-24T09:52:19.443Z,965.4400
2022-11-24T09:53:21.700Z,965.4200
2022-11-24T09:54:23.933Z,965.4400
2022-11-24T09:55:26.215Z,965.4600
2022-11-24T09:56:28.462Z,965.4400
2022-11-24T09:57:35.828Z,965.4100
2022-11-24T09:58:33.065Z,965.3700
2022-11-24T09:59:35.667Z,965.4100
2022-11-24T10:00:35.445Z,965.3900
2022-11-24T10:01:37.884Z,965.3700
2022-11-24T10:02:40.006Z,965.4200
2022-11-24T10:03:42.398Z,965.4100
2022-11-24T10:04:44.553Z,965.4600
2022-11-24T10:05:46.759Z,965.5000
2022-11-24T10:06:49.096Z,965.5200
2022-11-24T10:07:51.483Z,965.5800
2022-11-24T10:08:51.623Z,965.5800
2022-11-24T10:09:53.943Z,965.5800
2022-11-24T10:10:56.264Z,965.5800
2022-11-24T10:11:58.583Z,965.5600
2022-11-24T10:13:00.881Z,965.5400
2022-11-24T10:14:03.282Z,965.5000
2022-11-24T10:15:05.541Z,965.5400
2022-11-24T10:16:07.957Z,965.5400
2022-11-24T10:17:10.232Z,965.6000
2022-11-24T10:18:16.775Z,965.5800
2022-11-24T10:19:12.780Z,965.5800
2022-11-24T10:20:15.105Z,965.5800
2022-11-24T10:21:17.440Z,965.4800
2022-11-24T10:22:19.784Z,965.5400
2022-11-24T10:23:22.171Z,965.5200
2022-11-24T10:24:22.426Z,965.5200
2022-11-24T10:25:24.598Z,965.5000
2022-11-24T10:26:26.907Z,965.5400
2022-11-24T10:27:29.234Z,965.5200
2022-11-24T10:28:31.556Z,965.5800
2022-11-24T10:29:34.114Z,965.5400
2022-11-24T10:30:34.043Z,965.5400
2022-11-24T10:31:36.456Z,965.5400
2022-11-24T10:32:38.663Z,965.5400
2022-11-24T10:33:40.965Z,965.5000
2022-11-24T10:34:43.287Z,965.5400
2022-11-24T10:35:45.571Z,965.5800
2022-11-24T10:36:47.864Z,965.5800
2022-11-24T10:37:47.994Z,965.5600
2022-11-24T10:38:50.291Z,965.5400
2022-11-24T10:39:57.096Z,965.6400
2022-11-24T10:40:57.561Z,965.6200
2022-11-24T10:41:57.097Z,965.6400
2022-11-24T10:42:59.381Z,965.6400
2022-11-24T10:44:01.704Z,965.6400
2022-11-24T10:45:01.957Z,965.6600
2022-11-24T10:46:04.155Z,965.6600
2022-11-24T10:47:06.376Z,965.6200
2022-11-24T10:48:08.687Z,965.6000
2022-11-24T10:49:10.897Z,965.6200
2022-11-24T10:50:13.144Z,965.6000
2022-11-24T10:51:15.291Z,965.6200
2022-11-24T10:52:17.458Z,965.6000
2022-11-24T10:53:19.623Z,965.6200
2022-11-24T10:54:21.873Z,965.6600
2022-11-24T10:55:22.115Z,965.6800
2022-11-24T10:56:24.293Z,965.6600
2022-11-24T10:57:26.593Z,965.6600
2022-11-24T10:58:34.293Z,965.6600
2022-11-24T10:59:31.189Z,965.6400
2022-11-24T11:00:33.642Z,965.6600
2022-11-24T11:01:35.827Z,965.6600
2022-11-24T11:02:36.027Z,965.6200
2022-11-24T11:03:38.307Z,965.6200
2022-11-24T11:04:40.617Z,965.6000
2022-11-24T11:05:42.991Z,965.5800
2022-11-24T11:06:45.266Z,965.6400
2022-11-24T11:07:47.638Z,965.6000
2022-11-24T11:08:47.830Z,965.6400
2022-11-24T11:09:50.195Z,965.6400
2022-11-24T11:10:52.561Z,965.6400
2022-11-24T11:11:55.556Z,965.6400
2022-11-24T11:12:55.154Z,965.6200
2022-11-24T11:14:03.487Z,965.6600
2022-11-24T11:14:58.814Z,965.6800
2022-11-24T11:16:01.201Z,965.6600
2022-11-24T11:17:03.437Z,965.7200
2022-11-24T11:18:05.789Z,965.7400
2022-11-24T11:19:26.146Z,965.7600
2022-11-24T11:20:10.346Z,965.7000
2022-11-24T11:21:12.708Z,965.7000
2022-11-24T11:22:14.985Z,965.6800
2022-11-24T11:23:17.300Z,965.6600
2022-11-24T11:24:19.613Z,965.6000
2022-11-24T11:25:21.923Z,965.6600
2022-11-24T11:26:24.198Z,965.6600
2022-11-24T11:27:24.281Z,965.6400
2022-11-24T11:28:26.571Z,965.6400
2022-11-24T11:31:33.722Z,965.6600
2022-11-24T11:34:40.838Z,965.7400
2022-11-24T11:35:42.783Z,965.7600
2022-11-24T11:36:45.155Z,965.7600
2022-11-24T11:37:45.124Z,965.7400
2022-11-24T11:38:47.380Z,965.7600
2022-11-24T11:39:49.661Z,965.8000
2022-11-24T11:40:51.981Z,965.7800
2022-11-24T11:41:52.143Z,965.7600
2022-11-24T11:43:02.352Z,965.8000
2022-11-24T11:43:56.731Z,965.8200
2022-11-24T11:44:58.976Z,965.8200
2022-11-24T11:46:01.365Z,965.8600
2022-11-24T11:47:03.722Z,965.8400
2022-11-24T11:48:05.849Z,965.8400
2022-11-24T11:49:06.021Z,965.8900
2022-11-24T11:50:08.335Z,965.8600
2022-11-24T11:51:26.159Z,965.8900
2022-11-24T11:52:10.934Z,965.8900
2022-11-24T11:53:13.223Z,965.8600
2022-11-24T11:54:15.546Z,965.8900
2022-11-24T11:55:17.841Z,965.8800
2022-11-24T11:56:20.191Z,965.8400
2022-11-24T11:57:22.649Z,965.8600
2022-11-24T11:58:24.866Z,965.8800
2022-11-24T11:59:27.233Z,965.8800
2022-11-24T12:00:29.598Z,965.8800
2022-11-24T12:01:29.827Z,965.8900
2022-11-24T12:02:32.423Z,965.8800
2022-11-24T12:03:34.568Z,965.8800
2022-11-24T12:04:37.076Z,965.8900
2022-11-24T12:05:39.151Z,965.8800
2022-11-24T12:06:41.523Z,965.8400
2022-11-24T12:07:42.234Z,965.8600
2022-11-24T12:09:17.878Z,965.8600
2022-11-24T12:09:46.481Z,965.8000
2022-11-24T12:10:46.707Z,965.8000
2022-11-24T12:11:49.066Z,965.8000
2022-11-24T12:12:51.417Z,965.7800
2022-11-24T12:13:51.596Z,965.7200
2022-11-24T12:14:53.971Z,965.7600